createdAt,value
2018-06-10T00:00:33.186Z,15.68
2018-06-10T00:01:33.203Z,15.71
2018-06-10T00:02:33.215Z,15.71
2018-06-10T00:03:33.225Z,15.65
2018-06-10T00:04:33.248Z,15.68
2018-06-10T00:05:33.265Z,15.72
2018-06-10T00:06:33.335Z,15.75
2018-06-10T00:07:33.288Z,15.78
2018-06-10T00:08:33.305Z,15.74
2018-06-10T00:09:33.321Z,15.75
2018-06-10T00:10:33.337Z,15.68
2018-06-10T00:11:33.407Z,15.76
2018-06-10T00:12:33.373Z,15.62
2018-06-10T00:14:33.405Z,15.67
2018-06-10T00:15:33.423Z,15.67
2018-06-10T00:16:33.435Z,15.67
2018-06-10T00:17:33.456Z,15.64
2018-06-10T00:18:33.585Z,15.59
2018-06-10T00:19:33.485Z,15.59
2018-06-10T00:20:33.498Z,15.65
2018-06-10T00:21:33.517Z,15.57
2018-06-10T00:22:33.531Z,15.59
2018-06-10T00:23:33.550Z,15.59
2018-06-10T00:24:33.574Z,15.50
2018-06-10T00:25:33.576Z,15.62
2018-06-10T00:26:33.604Z,15.59
2018-06-10T00:27:33.608Z,15.49
2018-06-10T00:28:33.624Z,15.39
2018-06-10T00:29:33.644Z,15.46
2018-06-10T00:30:33.698Z,15.41
2018-06-10T00:31:33.676Z,15.38
2018-06-10T00:32:33.687Z,15.46
2018-06-10T00:33:33.711Z,15.44
2018-06-10T00:34:33.725Z,15.35
2018-06-10T00:35:33.736Z,15.38
2018-06-10T00:36:33.834Z,15.38
2018-06-10T00:37:33.778Z,15.44
2018-06-10T00:38:33.786Z,15.35
2018-06-10T00:39:33.804Z,15.35
2018-06-10T00:40:33.820Z,15.36
2018-06-10T00:41:33.837Z,15.27
2018-06-10T00:42:33.940Z,15.31
2018-06-10T00:43:33.869Z,15.41
2018-06-10T00:44:33.877Z,15.34
2018-06-10T00:45:33.895Z,15.32
2018-06-10T00:46:33.910Z,15.31
2018-06-10T00:47:33.933Z,15.34
2018-06-10T00:48:33.986Z,15.28
2018-06-10T00:49:33.966Z,15.36
2018-06-10T00:50:33.975Z,15.41
2018-06-10T00:51:33.995Z,15.36
2018-06-10T00:52:34.011Z,15.36
2018-06-10T00:53:34.024Z,15.35
2018-06-10T00:54:34.063Z,15.34
2018-06-10T00:55:34.055Z,15.32
2018-06-10T00:56:34.070Z,15.25
2018-06-10T00:57:34.089Z,15.19
2018-06-10T00:58:34.104Z,15.29
2018-06-10T00:59:34.125Z,15.20
2018-06-10T01:00:34.148Z,15.25
2018-06-10T01:01:34.154Z,15.25
2018-06-10T01:02:34.169Z,15.14
2018-06-10T01:03:34.183Z,15.17
2018-06-10T01:04:34.202Z,15.14
2018-06-10T01:05:34.217Z,15.13
2018-06-10T01:06:34.351Z,15.20
2018-06-10T01:07:34.254Z,15.17
2018-06-10T01:08:34.268Z,15.25
2018-06-10T01:09:34.283Z,15.14
2018-06-10T01:10:34.304Z,15.25
2018-06-10T01:11:34.312Z,15.17
2018-06-10T01:12:34.379Z,15.23
2018-06-10T01:13:34.350Z,15.29
2018-06-10T01:14:34.375Z,15.25
2018-06-10T01:15:34.379Z,15.19
2018-06-10T01:16:34.395Z,15.29
2018-06-10T01:17:34.412Z,15.34
2018-06-10T01:18:34.479Z,15.23
2018-06-10T01:19:34.449Z,15.27
2018-06-10T01:20:34.462Z,15.31
2018-06-10T01:21:34.476Z,15.13
2018-06-10T01:22:34.489Z,15.23
2018-06-10T01:23:34.538Z,15.27
2018-06-10T01:24:34.584Z,15.29
2018-06-10T01:25:34.540Z,15.38
2018-06-10T01:26:34.555Z,15.25
2018-06-10T01:27:34.576Z,15.27
2018-06-10T01:28:34.591Z,15.23
2018-06-10T01:29:34.599Z,15.28
2018-06-10T01:30:34.622Z,15.25
2018-06-10T01:31:34.637Z,15.23
2018-06-10T01:32:34.651Z,15.29
2018-06-10T01:33:34.664Z,15.27
2018-06-10T01:34:34.682Z,15.25
2018-06-10T01:35:34.701Z,15.28
2018-06-10T01:36:34.794Z,15.28
2018-06-10T01:37:34.734Z,15.14
2018-06-10T01:38:34.746Z,15.19
2018-06-10T01:39:34.765Z,15.10
2018-06-10T01:40:34.777Z,15.25
2018-06-10T01:41:34.796Z,15.19
2018-06-10T01:42:34.834Z,15.17
2018-06-10T01:43:34.829Z,15.17
2018-06-10T01:44:34.843Z,15.11
2018-06-10T01:45:34.860Z,15.19
2018-06-10T01:46:34.874Z,15.16
2018-06-10T01:47:34.894Z,15.17
2018-06-10T01:48:34.929Z,15.16
2018-06-10T01:49:34.923Z,15.17
2018-06-10T01:50:34.934Z,15.23
2018-06-10T01:51:34.950Z,15.21
2018-06-10T01:52:34.972Z,15.20
2018-06-10T01:53:34.983Z,15.17
2018-06-10T01:54:35.053Z,15.19
2018-06-10T01:55:35.015Z,15.28
2018-06-10T01:56:35.036Z,15.29
2018-06-10T01:57:35.054Z,15.25
2018-06-10T01:58:35.064Z,15.14
2018-06-10T01:59:35.081Z,15.16
2018-06-10T02:00:35.096Z,15.20
2018-06-10T02:01:35.197Z,15.20
2018-06-10T02:02:35.132Z,15.16
2018-06-10T02:03:35.148Z,15.27
2018-06-10T02:04:35.165Z,15.19
2018-06-10T02:05:35.178Z,15.21
2018-06-10T02:06:35.243Z,15.23
2018-06-10T02:07:35.210Z,15.23
2018-06-10T02:08:35.223Z,15.25
2018-06-10T02:09:35.242Z,15.17
2018-06-10T02:10:35.260Z,15.16
2018-06-10T02:11:35.277Z,15.27
2018-06-10T02:12:35.287Z,15.28
2018-06-10T02:13:35.308Z,15.25
2018-06-10T02:14:35.319Z,15.27
2018-06-10T02:15:35.334Z,15.23
2018-06-10T02:16:35.353Z,15.14
2018-06-10T02:17:35.370Z,15.20
2018-06-10T02:18:35.384Z,15.25
2018-06-10T02:19:35.472Z,15.25
2018-06-10T02:20:35.418Z,15.27
2018-06-10T02:21:35.431Z,15.34
2018-06-10T02:22:35.448Z,15.35
2018-06-10T02:23:35.466Z,15.31
2018-06-10T02:24:35.486Z,15.41
2018-06-10T02:25:35.499Z,15.32
2018-06-10T02:26:35.519Z,15.47
2018-06-10T02:27:35.526Z,15.49
2018-06-10T02:28:35.551Z,15.39
2018-06-10T02:29:35.561Z,15.53
2018-06-10T02:30:35.581Z,15.46
2018-06-10T02:31:35.634Z,15.47
2018-06-10T02:32:35.613Z,15.50
2018-06-10T02:33:35.628Z,15.50
2018-06-10T02:34:35.642Z,15.50
2018-06-10T02:35:35.658Z,15.47
2018-06-10T02:36:35.672Z,15.47
2018-06-10T02:37:35.714Z,15.51
2018-06-10T02:38:35.705Z,15.46
2018-06-10T02:39:35.724Z,15.47
2018-06-10T02:40:35.736Z,15.47
2018-06-10T02:41:35.761Z,15.43
2018-06-10T02:42:35.769Z,15.47
2018-06-10T02:43:35.797Z,15.41
2018-06-10T02:44:35.805Z,15.44
2018-06-10T02:45:35.816Z,15.47
2018-06-10T02:46:35.837Z,15.47
2018-06-10T02:47:35.849Z,15.57
2018-06-10T02:48:35.923Z,15.57
2018-06-10T02:49:35.884Z,15.60
2018-06-10T02:50:35.912Z,15.69
2018-06-10T02:51:35.915Z,15.65
2018-06-10T02:52:35.935Z,15.60
2018-06-10T02:53:35.945Z,15.72
2018-06-10T02:54:35.965Z,15.62
2018-06-10T02:55:35.990Z,15.72
2018-06-10T02:56:36.000Z,15.74
2018-06-10T02:57:36.016Z,15.71
2018-06-10T02:58:36.032Z,15.75
2018-06-10T02:59:36.042Z,15.72
2018-06-10T03:01:43.789Z,15.82
2018-06-10T03:02:36.095Z,15.80
2018-06-10T03:03:36.108Z,15.82
2018-06-10T03:04:36.126Z,15.87
2018-06-10T03:05:36.139Z,15.93
2018-06-10T03:06:36.158Z,15.86
2018-06-10T03:07:36.221Z,15.83
2018-06-10T03:08:36.186Z,15.80
2018-06-10T03:09:36.206Z,15.78
2018-06-10T03:10:36.219Z,15.82
2018-06-10T03:11:36.238Z,15.84
2018-06-10T03:12:36.251Z,15.86
2018-06-10T03:13:36.266Z,15.75
2018-06-10T03:14:36.328Z,15.75
2018-06-10T03:15:36.299Z,15.82
2018-06-10T03:16:36.315Z,15.84
2018-06-10T03:17:36.328Z,15.72
2018-06-10T03:18:36.348Z,15.84
2018-06-10T03:19:36.362Z,15.84
2018-06-10T03:20:36.386Z,15.80
2018-06-10T03:21:36.399Z,15.78
2018-06-10T03:22:36.407Z,15.71
2018-06-10T03:23:36.430Z,15.74
2018-06-10T03:24:36.445Z,15.82
2018-06-10T03:25:36.460Z,15.68
2018-06-10T03:26:36.530Z,15.80
2018-06-10T03:27:36.493Z,15.87
2018-06-10T03:28:36.509Z,15.87
2018-06-10T03:29:36.520Z,15.90
2018-06-10T03:30:36.536Z,15.86
2018-06-10T03:31:36.558Z,15.87
2018-06-10T03:32:36.569Z,15.86
2018-06-10T03:33:36.627Z,15.82
2018-06-10T03:34:36.607Z,15.82
2018-06-10T03:35:36.618Z,15.83
2018-06-10T03:36:36.636Z,15.87
2018-06-10T03:37:36.650Z,15.86
2018-06-10T03:38:36.670Z,15.83
2018-06-10T03:39:36.694Z,15.86
2018-06-10T03:40:36.698Z,15.92
2018-06-10T03:41:36.714Z,15.83
2018-06-10T03:42:36.728Z,15.84
2018-06-10T03:43:36.749Z,15.82
2018-06-10T03:44:36.763Z,15.83
2018-06-10T03:45:36.812Z,15.78
2018-06-10T03:46:36.789Z,15.87
2018-06-10T03:47:36.803Z,15.82
2018-06-10T03:48:36.827Z,15.92
2018-06-10T03:49:36.836Z,15.86
2018-06-10T03:50:36.852Z,15.89
2018-06-10T03:51:36.871Z,15.83
2018-06-10T03:52:36.888Z,15.83
2018-06-10T03:53:36.903Z,15.86
2018-06-10T03:54:36.934Z,15.86
2018-06-10T03:55:36.930Z,15.87
2018-06-10T03:56:36.945Z,15.92
2018-06-10T03:57:36.970Z,15.86
2018-06-10T03:58:36.985Z,15.86
2018-06-10T03:59:36.992Z,15.92
2018-06-10T04:00:37.009Z,15.96
2018-06-10T04:01:37.025Z,16.02
2018-06-10T04:02:37.042Z,15.94
2018-06-10T04:03:37.060Z,15.96
2018-06-10T04:04:37.075Z,16.01
2018-06-10T04:05:37.094Z,15.96
2018-06-10T04:06:37.112Z,16.02
2018-06-10T04:07:37.128Z,16.08
2018-06-10T04:08:37.139Z,16.04
2018-06-10T04:09:37.155Z,16.08
2018-06-10T04:10:37.216Z,16.08
2018-06-10T04:11:37.189Z,16.04
2018-06-10T04:12:37.206Z,16.07
2018-06-10T04:13:37.215Z,16.08
2018-06-10T04:14:37.237Z,16.04
2018-06-10T04:15:37.253Z,16.08
2018-06-10T04:16:37.267Z,16.05
2018-06-10T04:17:37.282Z,16.04
2018-06-10T04:18:37.312Z,16.05
2018-06-10T04:19:37.315Z,16.09
2018-06-10T04:20:37.335Z,16.02
2018-06-10T04:21:37.350Z,16.00
2018-06-10T04:22:37.403Z,16.08
2018-06-10T04:23:37.379Z,16.04
2018-06-10T04:24:37.394Z,16.07
2018-06-10T04:25:37.414Z,15.94
2018-06-10T04:26:37.431Z,16.07
2018-06-10T04:27:37.438Z,16.00
2018-06-10T04:28:37.457Z,15.92
2018-06-10T04:29:37.471Z,16.01
2018-06-10T04:30:37.491Z,15.94
2018-06-10T04:31:37.510Z,15.89
2018-06-10T04:32:37.521Z,15.97
2018-06-10T04:33:37.543Z,15.93
2018-06-10T04:34:37.552Z,15.92
2018-06-10T04:35:37.572Z,15.86
2018-06-10T04:36:37.590Z,15.86
2018-06-10T04:37:37.598Z,15.97
2018-06-10T04:38:37.615Z,15.92
2018-06-10T04:39:37.632Z,15.83
2018-06-10T04:40:37.649Z,15.84
2018-06-10T04:41:37.680Z,15.89
2018-06-10T04:42:37.684Z,15.86
2018-06-10T04:43:37.696Z,15.87
2018-06-10T04:44:37.713Z,15.93
2018-06-10T04:45:37.733Z,15.82
2018-06-10T04:46:37.743Z,15.90
2018-06-10T04:47:37.769Z,15.83
2018-06-10T04:48:37.782Z,15.87
2018-06-10T04:49:37.793Z,15.93
2018-06-10T04:50:37.811Z,16.00
2018-06-10T04:51:37.823Z,15.84
2018-06-10T04:52:37.838Z,15.96
2018-06-10T04:53:37.936Z,15.96
2018-06-10T04:54:37.871Z,15.89
2018-06-10T04:55:37.892Z,15.89
2018-06-10T04:56:37.908Z,15.94
2018-06-10T04:57:37.918Z,15.97
2018-06-10T04:58:37.935Z,15.89
2018-06-10T04:59:37.949Z,15.96
2018-06-10T05:00:37.972Z,15.92
2018-06-10T05:01:37.990Z,15.94
2018-06-10T05:02:38.006Z,16.00
2018-06-10T05:03:38.019Z,15.96
2018-06-10T05:04:38.033Z,16.07
2018-06-10T05:05:38.050Z,16.05
2018-06-10T05:06:38.067Z,16.02
2018-06-10T05:07:38.085Z,16.02
2018-06-10T05:08:38.095Z,16.14
2018-06-10T05:09:38.109Z,16.11
2018-06-10T05:10:38.126Z,16.11
2018-06-10T05:11:38.145Z,16.09
2018-06-10T05:12:38.217Z,16.15
2018-06-10T05:13:38.173Z,16.20
2018-06-10T05:14:38.196Z,16.17
2018-06-10T05:15:38.203Z,16.17
2018-06-10T05:16:38.224Z,16.14
2018-06-10T05:17:38.239Z,16.17
2018-06-10T05:18:38.307Z,16.12
2018-06-10T05:19:38.307Z,16.15
2018-06-10T05:20:38.293Z,16.15
2018-06-10T05:21:38.306Z,16.14
2018-06-10T05:22:38.320Z,16.15
2018-06-10T05:23:38.332Z,16.05
2018-06-10T05:24:38.352Z,16.05
2018-06-10T05:25:38.367Z,16.02
2018-06-10T05:26:38.387Z,16.05
2018-06-10T05:27:38.403Z,16.08
2018-06-10T05:28:38.418Z,16.07
2018-06-10T05:29:38.432Z,16.05
2018-06-10T05:30:38.520Z,16.07
2018-06-10T05:31:38.467Z,16.12
2018-06-10T05:32:38.481Z,16.14
2018-06-10T05:33:38.496Z,16.09
2018-06-10T05:34:38.599Z,16.15
2018-06-10T05:35:38.529Z,16.14
2018-06-10T05:36:38.644Z,16.21
2018-06-10T05:37:38.560Z,16.23
2018-06-10T05:38:38.573Z,16.12
2018-06-10T05:39:38.596Z,16.12
2018-06-10T05:40:38.612Z,16.15
2018-06-10T05:41:38.626Z,16.15
2018-06-10T05:42:38.647Z,16.11
2018-06-10T05:43:38.653Z,16.12
2018-06-10T05:44:38.675Z,16.08
2018-06-10T05:45:38.686Z,16.12
2018-06-10T05:46:38.706Z,16.20
2018-06-10T05:47:38.724Z,16.08
2018-06-10T05:48:38.745Z,16.05
2018-06-10T05:49:38.759Z,16.07
2018-06-10T05:50:38.774Z,16.00
2018-06-10T05:51:38.784Z,15.93
2018-06-10T05:52:38.804Z,16.02
2018-06-10T05:53:38.815Z,16.00
2018-06-10T05:54:38.848Z,15.94
2018-06-10T05:55:38.846Z,15.94
2018-06-10T05:56:38.861Z,16.01
2018-06-10T05:57:38.885Z,15.94
2018-06-10T05:58:38.894Z,15.90
2018-06-10T05:59:38.917Z,15.96
2018-06-10T06:00:39.011Z,15.97
2018-06-10T06:01:38.942Z,15.97
2018-06-10T06:02:38.965Z,15.97
2018-06-10T06:03:38.977Z,16.00
2018-06-10T06:04:38.995Z,16.01
2018-06-10T06:05:39.007Z,16.01
2018-06-10T06:06:39.046Z,16.04
2018-06-10T06:07:39.043Z,16.05
2018-06-10T06:08:39.058Z,16.02
2018-06-10T06:09:39.075Z,16.04
2018-06-10T06:10:39.094Z,16.07
2018-06-10T06:11:39.109Z,16.08
2018-06-10T06:12:39.186Z,16.11
2018-06-10T06:13:39.138Z,16.05
2018-06-10T06:14:39.158Z,16.00
2018-06-10T06:15:39.170Z,16.05
2018-06-10T06:16:39.196Z,16.05
2018-06-10T06:17:39.202Z,16.07
2018-06-10T06:18:39.289Z,16.09
2018-06-10T06:19:39.236Z,16.12
2018-06-10T06:20:39.254Z,16.11
2018-06-10T06:21:39.267Z,16.12
2018-06-10T06:22:39.287Z,16.12
2018-06-10T06:23:39.294Z,16.20
2018-06-10T06:24:39.337Z,16.14
2018-06-10T06:25:39.333Z,16.27
2018-06-10T06:26:39.360Z,16.38
2018-06-10T06:27:39.358Z,16.43
2018-06-10T06:28:39.379Z,16.42
2018-06-10T06:29:39.399Z,16.42
2018-06-10T06:30:39.475Z,16.42
2018-06-10T06:31:39.421Z,16.50
2018-06-10T06:32:39.444Z,16.50
2018-06-10T06:33:39.455Z,16.56
2018-06-10T06:34:39.480Z,16.58
2018-06-10T06:35:39.493Z,16.66
2018-06-10T06:36:39.527Z,16.86
2018-06-10T06:37:39.521Z,16.93
2018-06-10T06:38:39.539Z,17.03
2018-06-10T06:39:39.557Z,17.06
2018-06-10T06:40:39.569Z,17.16
2018-06-10T06:41:39.589Z,17.22
2018-06-10T06:42:39.607Z,17.28
2018-06-10T06:43:39.619Z,17.26
2018-06-10T06:44:39.637Z,17.41
2018-06-10T06:45:39.647Z,17.46
2018-06-10T06:46:39.665Z,17.49
2018-06-10T06:47:39.687Z,17.63
2018-06-10T06:48:39.755Z,17.64
2018-06-10T06:49:39.724Z,17.78
2018-06-10T06:50:39.732Z,17.90
2018-06-10T06:51:39.755Z,18.10
2018-06-10T06:52:39.848Z,18.10
2018-06-10T06:53:39.785Z,18.18
2018-06-10T06:54:39.801Z,18.23
2018-06-10T06:55:39.816Z,18.33
2018-06-10T06:56:39.835Z,18.42
2018-06-10T06:57:39.854Z,18.30
2018-06-10T06:58:39.866Z,18.11
2018-06-10T06:59:39.879Z,17.89
2018-06-10T07:00:39.904Z,17.86
2018-06-10T07:01:39.918Z,17.68
2018-06-10T07:02:39.934Z,17.63
2018-06-10T07:03:39.955Z,17.59
2018-06-10T07:04:39.967Z,17.52
2018-06-10T07:05:39.989Z,17.62
2018-06-10T07:06:40.000Z,17.40
2018-06-10T07:07:40.103Z,17.41
2018-06-10T07:08:40.031Z,17.41
2018-06-10T07:09:40.053Z,17.23
2018-06-10T07:10:40.075Z,17.33
2018-06-10T07:11:40.087Z,17.30
2018-06-10T07:12:40.101Z,17.28
2018-06-10T07:13:40.220Z,17.40
2018-06-10T07:14:40.134Z,17.44
2018-06-10T07:15:40.151Z,17.44
2018-06-10T07:16:40.167Z,17.49
2018-06-10T07:17:40.184Z,17.54
2018-06-10T07:18:40.203Z,17.59
2018-06-10T07:19:40.221Z,17.63
2018-06-10T07:20:40.235Z,17.63
2018-06-10T07:21:40.249Z,17.62
2018-06-10T07:22:40.273Z,17.59
2018-06-10T07:23:40.297Z,17.51
2018-06-10T07:24:40.305Z,17.63
2018-06-10T07:25:40.389Z,17.62
2018-06-10T07:26:40.335Z,17.63
2018-06-10T07:27:40.354Z,17.52
2018-06-10T07:28:40.371Z,17.44
2018-06-10T07:29:40.386Z,17.49
2018-06-10T07:30:40.401Z,17.51
2018-06-10T07:31:40.422Z,17.49
2018-06-10T07:32:40.434Z,17.48
2018-06-10T07:33:40.477Z,17.49
2018-06-10T07:34:40.475Z,17.43
2018-06-10T07:35:40.486Z,17.44
2018-06-10T07:36:40.501Z,17.49
2018-06-10T07:37:40.520Z,17.43
2018-06-10T07:38:40.534Z,17.43
2018-06-10T07:39:40.556Z,17.43
2018-06-10T07:40:40.626Z,17.41
2018-06-10T07:41:40.594Z,17.44
2018-06-10T07:42:40.608Z,17.38
2018-06-10T07:43:40.620Z,17.51
2018-06-10T07:44:40.640Z,17.44
2018-06-10T07:45:40.653Z,17.30
2018-06-10T07:46:40.669Z,17.28
2018-06-10T07:47:40.690Z,17.23
2018-06-10T07:48:40.705Z,17.25
2018-06-10T07:49:40.726Z,17.30
2018-06-10T07:50:40.734Z,17.30
2018-06-10T07:51:40.758Z,17.28
2018-06-10T07:52:40.770Z,17.26
2018-06-10T07:53:40.784Z,17.31
2018-06-10T07:54:40.808Z,17.28
2018-06-10T07:55:40.820Z,17.14
2018-06-10T07:56:40.842Z,16.94
2018-06-10T07:57:40.859Z,16.88
2018-06-10T07:58:40.872Z,16.82
2018-06-10T07:59:40.889Z,16.81
2018-06-10T08:00:40.902Z,16.81
2018-06-10T08:01:40.927Z,16.78
2018-06-10T08:02:41.006Z,16.82
2018-06-10T08:03:40.953Z,16.88
2018-06-10T08:04:40.969Z,16.93
2018-06-10T08:05:40.987Z,16.96
2018-06-10T08:06:41.000Z,17.12
2018-06-10T08:07:41.017Z,17.31
2018-06-10T08:08:41.039Z,17.49
2018-06-10T08:09:41.059Z,17.63
2018-06-10T08:10:41.066Z,17.79
2018-06-10T08:11:41.083Z,17.87
2018-06-10T08:12:41.101Z,18.15
2018-06-10T08:13:41.117Z,18.20
2018-06-10T08:14:41.157Z,18.36
2018-06-10T08:15:41.151Z,18.30
2018-06-10T08:16:41.169Z,18.33
2018-06-10T08:17:41.187Z,18.41
2018-06-10T08:18:41.222Z,18.55
2018-06-10T08:19:41.215Z,18.54
2018-06-10T08:20:41.258Z,18.67
2018-06-10T08:21:41.253Z,18.67
2018-06-10T08:22:41.266Z,18.47
2018-06-10T08:23:41.285Z,18.47
2018-06-10T08:24:41.304Z,18.55
2018-06-10T08:25:41.323Z,18.54
2018-06-10T08:26:41.340Z,18.60
2018-06-10T08:27:41.350Z,18.63
2018-06-10T08:28:41.395Z,18.69
2018-06-10T08:29:41.386Z,18.63
2018-06-10T08:30:41.409Z,18.51
2018-06-10T08:31:41.420Z,18.37
2018-06-10T08:32:41.448Z,18.32
2018-06-10T08:33:41.457Z,18.39
2018-06-10T08:34:41.471Z,18.39
2018-06-10T08:35:41.497Z,18.29
2018-06-10T08:36:41.509Z,18.32
2018-06-10T08:37:41.522Z,18.18
2018-06-10T08:38:41.540Z,18.21
2018-06-10T08:39:41.570Z,18.14
2018-06-10T08:40:41.575Z,18.07
2018-06-10T08:41:41.596Z,18.05
2018-06-10T08:42:41.616Z,17.95
2018-06-10T08:43:41.652Z,17.89
2018-06-10T08:44:41.641Z,17.81
2018-06-10T08:45:41.661Z,17.82
2018-06-10T08:46:41.677Z,17.79
2018-06-10T08:47:41.704Z,17.92
2018-06-10T08:48:41.710Z,17.92
2018-06-10T08:49:41.727Z,17.97
2018-06-10T08:50:41.747Z,18.18
2018-06-10T08:51:41.762Z,18.18
2018-06-10T08:52:41.786Z,18.20
2018-06-10T08:53:41.818Z,18.26
2018-06-10T08:54:41.816Z,18.20
2018-06-10T08:55:41.839Z,18.25
2018-06-10T08:56:41.851Z,18.29
2018-06-10T08:57:41.866Z,18.37
2018-06-10T08:58:41.880Z,18.36
2018-06-10T08:59:41.908Z,18.29
2018-06-10T09:00:41.918Z,18.35
2018-06-10T09:01:41.934Z,18.42
2018-06-10T09:02:41.962Z,18.39
2018-06-10T09:03:41.967Z,18.50
2018-06-10T09:04:41.984Z,18.52
2018-06-10T09:05:42.008Z,18.67
2018-06-10T09:06:42.023Z,18.65
2018-06-10T09:07:42.042Z,18.84
2018-06-10T09:08:42.190Z,18.92
2018-06-10T09:09:42.068Z,19.04
2018-06-10T09:10:42.128Z,19.13
2018-06-10T09:11:42.110Z,19.37
2018-06-10T09:12:42.122Z,19.48
2018-06-10T09:13:42.142Z,19.78
2018-06-10T09:14:42.176Z,19.76
2018-06-10T09:15:42.174Z,19.92
2018-06-10T09:16:42.193Z,20.11
2018-06-10T09:17:42.215Z,20.02
2018-06-10T09:18:42.226Z,19.71
2018-06-10T09:19:42.250Z,19.86
2018-06-10T09:20:42.264Z,19.71
2018-06-10T09:21:42.296Z,19.86
2018-06-10T09:22:42.309Z,19.84
2018-06-10T09:23:42.320Z,19.84
2018-06-10T09:24:42.331Z,19.78
2018-06-10T09:25:42.353Z,19.62
2018-06-10T09:26:42.367Z,19.76
2018-06-10T09:27:42.388Z,19.76
2018-06-10T09:28:42.422Z,19.86
2018-06-10T09:29:42.432Z,19.91
2018-06-10T09:30:42.442Z,19.88
2018-06-10T09:31:42.458Z,19.61
2018-06-10T09:32:42.480Z,19.46
2018-06-10T09:33:42.497Z,19.47
2018-06-10T09:34:42.516Z,19.40
2018-06-10T09:35:42.614Z,19.40
2018-06-10T09:36:42.551Z,19.25
2018-06-10T09:37:42.570Z,19.22
2018-06-10T09:38:42.583Z,19.22
2018-06-10T09:39:42.602Z,19.48
2018-06-10T09:40:42.617Z,19.47
2018-06-10T09:41:42.636Z,19.55
2018-06-10T09:42:42.659Z,19.54
2018-06-10T09:43:42.673Z,19.65
2018-06-10T09:44:42.689Z,19.69
2018-06-10T09:45:42.710Z,19.76
2018-06-10T09:46:42.733Z,19.87
2018-06-10T09:47:42.746Z,20.05
2018-06-10T09:48:42.767Z,20.05
2018-06-10T09:49:42.781Z,20.32
2018-06-10T09:50:42.799Z,20.23
2018-06-10T09:51:42.819Z,20.13
2018-06-10T09:52:42.837Z,20.13
2018-06-10T09:53:42.853Z,20.18
2018-06-10T09:54:42.867Z,20.10
2018-06-10T09:55:42.941Z,20.11
2018-06-10T09:56:42.904Z,20.01
2018-06-10T09:57:42.921Z,19.98
2018-06-10T09:58:42.939Z,19.88
2018-06-10T09:59:42.962Z,19.87
2018-06-10T10:00:42.975Z,19.91
2018-06-10T10:01:42.995Z,19.94
2018-06-10T10:02:43.055Z,20.01
2018-06-10T10:03:43.035Z,20.03
2018-06-10T10:04:43.044Z,19.96
2018-06-10T10:05:43.063Z,19.94
2018-06-10T10:06:43.087Z,19.77
2018-06-10T10:07:43.097Z,19.81
2018-06-10T10:08:43.162Z,19.74
2018-06-10T10:09:43.134Z,19.94
2018-06-10T10:10:43.166Z,19.99
2018-06-10T10:11:43.173Z,19.99
2018-06-10T10:12:43.261Z,20.03
2018-06-10T10:13:43.206Z,19.92
2018-06-10T10:14:43.257Z,19.86
2018-06-10T10:15:43.247Z,19.77
2018-06-10T10:16:43.261Z,19.73
2018-06-10T10:17:43.353Z,19.86
2018-06-10T10:18:43.334Z,19.95
2018-06-10T10:19:43.317Z,19.95
2018-06-10T10:20:43.338Z,20.01
2018-06-10T10:21:43.350Z,20.05
2018-06-10T10:22:43.367Z,19.98
2018-06-10T10:23:43.383Z,20.05
2018-06-10T10:24:43.407Z,20.39
2018-06-10T10:25:43.425Z,20.41
2018-06-10T10:26:43.442Z,20.67
2018-06-10T10:27:43.462Z,20.76
2018-06-10T10:28:43.495Z,20.64
2018-06-10T10:29:43.494Z,20.84
2018-06-10T10:30:43.572Z,20.87
2018-06-10T10:31:43.530Z,21.01
2018-06-10T10:32:43.545Z,21.12
2018-06-10T10:33:43.571Z,21.42
2018-06-10T10:34:43.594Z,21.56
2018-06-10T10:35:43.609Z,22.10
2018-06-10T10:36:43.626Z,22.20
2018-06-10T10:37:43.642Z,21.99
2018-06-10T10:38:43.660Z,22.05
2018-06-10T10:39:43.702Z,22.05
2018-06-10T10:40:43.703Z,21.83
2018-06-10T10:41:43.786Z,21.82
2018-06-10T10:42:43.762Z,21.61
2018-06-10T10:43:43.748Z,21.38
2018-06-10T10:44:43.778Z,21.44
2018-06-10T10:45:43.788Z,21.19
2018-06-10T10:46:43.808Z,21.24
2018-06-10T10:47:43.830Z,21.01
2018-06-10T10:48:43.855Z,21.01
2018-06-10T10:49:43.864Z,21.16
2018-06-10T10:50:43.884Z,20.87
2018-06-10T10:51:43.895Z,20.66
2018-06-10T10:52:43.915Z,20.67
2018-06-10T10:53:44.017Z,20.58
2018-06-10T10:54:43.956Z,20.39
2018-06-10T10:55:43.977Z,20.58
2018-06-10T10:56:43.998Z,20.85
2018-06-10T10:57:44.012Z,20.76
2018-06-10T10:58:44.037Z,20.73
2018-06-10T10:59:44.102Z,21.12
2018-06-10T11:00:44.067Z,21.01
2018-06-10T11:01:44.083Z,20.94
2018-06-10T11:02:44.114Z,20.69
2018-06-10T11:03:44.126Z,20.84
2018-06-10T11:04:44.140Z,20.84
2018-06-10T11:05:44.167Z,20.85
2018-06-10T11:06:44.183Z,20.77
2018-06-10T11:07:44.200Z,20.64
2018-06-10T11:08:44.214Z,20.42
2018-06-10T11:09:44.238Z,20.32
2018-06-10T11:10:44.253Z,20.38
2018-06-10T11:11:44.272Z,20.39
2018-06-10T11:12:44.289Z,20.31
2018-06-10T11:13:44.308Z,20.42
2018-06-10T11:14:44.330Z,20.55
2018-06-10T11:15:44.351Z,20.61
2018-06-10T11:16:44.364Z,20.43
2018-06-10T11:17:44.433Z,20.35
2018-06-10T11:18:44.406Z,20.10
2018-06-10T11:19:44.415Z,20.06
2018-06-10T11:20:44.438Z,19.98
2018-06-10T11:21:44.449Z,19.92
2018-06-10T11:22:44.475Z,19.80
2018-06-10T11:23:44.494Z,20.05
2018-06-10T11:24:44.514Z,19.88
2018-06-10T11:25:44.526Z,19.83
2018-06-10T11:26:44.547Z,19.88
2018-06-10T11:27:44.559Z,19.99
2018-06-10T11:28:44.576Z,20.02
2018-06-10T11:29:44.649Z,19.99
2018-06-10T11:30:44.612Z,19.92
2018-06-10T11:31:44.634Z,19.95
2018-06-10T11:32:44.653Z,19.96
2018-06-10T11:33:44.673Z,19.91
2018-06-10T11:34:44.687Z,19.88
2018-06-10T11:35:44.705Z,19.94
2018-06-10T11:36:44.719Z,19.84
2018-06-10T11:37:44.741Z,19.87
2018-06-10T11:38:44.763Z,20.06
2018-06-10T11:39:44.771Z,19.95
2018-06-10T11:40:44.791Z,20.10
2018-06-10T11:41:44.865Z,19.92
2018-06-10T11:42:44.833Z,19.83
2018-06-10T11:43:44.915Z,19.81
2018-06-10T11:44:44.867Z,19.71
2018-06-10T11:45:44.886Z,19.91
2018-06-10T11:46:44.896Z,20.13
2018-06-10T11:47:44.981Z,20.10
2018-06-10T11:48:44.934Z,20.03
2018-06-10T11:49:44.972Z,20.21
2018-06-10T11:50:44.972Z,20.33
2018-06-10T11:51:44.986Z,20.43
2018-06-10T11:52:45.013Z,20.67
2018-06-10T11:53:45.035Z,20.72
2018-06-10T11:54:45.046Z,20.64
2018-06-10T11:55:45.140Z,20.87
2018-06-10T11:56:45.076Z,20.98
2018-06-10T11:57:45.101Z,20.97
2018-06-10T11:58:45.119Z,20.73
2018-06-10T11:59:45.200Z,20.79
2018-06-10T12:00:45.147Z,20.92
2018-06-10T12:01:45.249Z,21.16
2018-06-10T12:02:45.188Z,21.01
2018-06-10T12:03:45.200Z,20.85
2018-06-10T12:04:45.223Z,20.69
2018-06-10T12:05:45.293Z,20.95
2018-06-10T12:06:45.260Z,20.99
2018-06-10T12:07:45.356Z,21.27
2018-06-10T12:08:45.295Z,21.29
2018-06-10T12:09:45.315Z,21.16
2018-06-10T12:10:45.336Z,21.38
2018-06-10T12:11:45.355Z,21.50
2018-06-10T12:12:45.366Z,21.65
2018-06-10T12:13:45.441Z,21.71
2018-06-10T12:14:45.407Z,21.96
2018-06-10T12:15:45.429Z,21.96
2018-06-10T12:16:45.444Z,21.92
2018-06-10T12:17:45.511Z,21.62
2018-06-10T12:18:45.493Z,21.43
2018-06-10T12:19:45.495Z,21.35
2018-06-10T12:20:45.523Z,21.59
2018-06-10T12:21:45.535Z,21.29
2018-06-10T12:22:45.617Z,21.27
2018-06-10T12:23:45.574Z,21.10
2018-06-10T12:24:45.590Z,21.13
2018-06-10T12:25:45.644Z,21.38
2018-06-10T12:26:45.630Z,21.40
2018-06-10T12:27:45.646Z,21.37
2018-06-10T12:28:45.664Z,21.35
2018-06-10T12:29:45.739Z,21.24
2018-06-10T12:30:45.706Z,21.40
2018-06-10T12:31:45.733Z,21.47
2018-06-10T12:32:45.808Z,21.54
2018-06-10T12:33:45.761Z,21.56
2018-06-10T12:34:45.785Z,21.64
2018-06-10T12:35:45.799Z,21.64
2018-06-10T12:36:45.818Z,21.69
2018-06-10T12:37:45.832Z,21.64
2018-06-10T12:38:45.924Z,21.61
2018-06-10T12:39:45.869Z,21.91
2018-06-10T12:40:45.900Z,21.69
2018-06-10T12:41:45.962Z,21.64
2018-06-10T12:42:45.932Z,21.61
2018-06-10T12:43:45.948Z,21.84
2018-06-10T12:44:45.966Z,21.64
2018-06-10T12:45:45.985Z,21.46
2018-06-10T12:46:46.011Z,21.19
2018-06-10T12:47:46.072Z,21.13
2018-06-10T12:48:46.040Z,21.35
2018-06-10T12:49:46.061Z,20.99
2018-06-10T12:50:46.110Z,20.85
2018-06-10T12:51:46.104Z,20.85
2018-06-10T12:52:46.118Z,20.55
2018-06-10T12:53:46.192Z,20.82
2018-06-10T12:54:46.155Z,20.72